Caribe Navigator — V2PW6 — position and weather

sailwx.info

Track history (hours):
 
Tides and Currents Weather Stations Pressure Air Temp Water Temp Dewpoint Dewpoint Depression Visibility Wind Speed Wind Dir Waves Ship Positions

Caribe Navigator

Last reported at 2016-Feb-05 05:31 UTC. Time now 2016-Feb-07 13:14 UTC.
Position N 25°23' W 080°01'.

Length 100 m; draft 5 m.

Type: Cargo ship. MMSI: 305289000.

Date/timePositionNaut miles runAvg speedWind from/ knotsBaromVisibWave heightAir tempDewpointWater temp
2016-Feb-05 05:31N 25°23' W 080°01'1111.5
2016-Feb-05 04:33N 25°34' W 080°01'1211.6
2016-Feb-05 03:33N 25°45' W 080°02'1212.1
2016-Feb-05 02:33N 25°57' W 080°03'9 8.4
2016-Feb-05 01:32N 26°05' W 080°07'0 0.0
2016-Feb-04 01:24N 26°05' W 080°07'6 6.6
2016-Feb-04 00:34N 26°01' W 080°03'1716.9
2016-Feb-03 23:34N 25°44' W 080°02'48915.8
2016-Feb-02 16:34N 20°37' W 086°55'  
2016-Jan-29 04:33N 25°12' W 080°07'1312.4
2016-Jan-29 03:32N 25°23' W 080°01'1212.3
2016-Jan-29 02:33N 25°35' W 080°01'1111.3
2016-Jan-29 01:33N 25°47' W 080°02'1211.6
2016-Jan-29 00:33N 25°58' W 080°04'8 7.5
2016-Jan-28 23:31N 26°05' W 080°07'0 0.0
2016-Jan-28 22:31N 26°05' W 080°07'0 0.0
2016-Jan-28 21:31N 26°05' W 080°07'0 0.0
2016-Jan-28 20:31N 26°05' W 080°07'0 0.0
2016-Jan-28 19:31N 26°05' W 080°07'0 0.0
2016-Jan-28 18:31N 26°05' W 080°07'0 0.0
2016-Jan-28 17:22N 26°05' W 080°07'0 0.0
2016-Jan-28 16:22N 26°05' W 080°07'0 0.0
2016-Jan-28 15:25N 26°05' W 080°07'0 0.0
2016-Jan-28 14:25N 26°05' W 080°07'0 0.0
2016-Jan-28 13:25N 26°05' W 080°07'0 0.0
2016-Jan-28 12:25N 26°05' W 080°07'0 0.0
2016-Jan-28 11:25N 26°05' W 080°07'0 0.0
2016-Jan-28 10:25N 26°05' W 080°07'0 0.0
2016-Jan-28 09:28N 26°05' W 080°07'0 0.0
2016-Jan-28 08:27N 26°05' W 080°07'0 0.0
2016-Jan-28 07:27N 26°05' W 080°07'0 0.0
2016-Jan-28 06:27N 26°05' W 080°07'2 2.6
2016-Jan-28 05:33N 26°05' W 080°05'1515.5
2016-Jan-28 04:34N 25°49' W 080°03'1817.5
2016-Jan-28 03:33N 25°32' W 080°01'  
Track history (hours):
 
Tides and Currents Weather Stations Pressure Air Temp Water Temp Dewpoint Dewpoint Depression Visibility Wind Speed Wind Dir Waves Ship Positions

Caribe Navigator

Last reported at 2016-Feb-05 05:31 UTC. Time now 2016-Feb-07 13:14 UTC.
Position N 25°23' W 080°01'.

Length 100 m; draft 5 m.

Type: Cargo ship. MMSI: 305289000.

Date/timePositionNaut miles runAvg speedWind from/ knotsBaromVisibWave heightAir tempDewpointWater temp
2016-Feb-05 05:31N 25°23' W 080°01'1111.5
2016-Feb-05 04:33N 25°34' W 080°01'1211.6
2016-Feb-05 03:33N 25°45' W 080°02'1212.1
2016-Feb-05 02:33N 25°57' W 080°03'9 8.4
2016-Feb-05 01:32N 26°05' W 080°07'0 0.0
2016-Feb-04 01:24N 26°05' W 080°07'6 6.6
2016-Feb-04 00:34N 26°01' W 080°03'1716.9
2016-Feb-03 23:34N 25°44' W 080°02'48915.8
2016-Feb-02 16:34N 20°37' W 086°55'  
2016-Jan-29 04:33N 25°12' W 080°07'1312.4
2016-Jan-29 03:32N 25°23' W 080°01'1212.3
2016-Jan-29 02:33N 25°35' W 080°01'1111.3
2016-Jan-29 01:33N 25°47' W 080°02'1211.6
2016-Jan-29 00:33N 25°58' W 080°04'8 7.5
2016-Jan-28 23:31N 26°05' W 080°07'0 0.0
2016-Jan-28 22:31N 26°05' W 080°07'0 0.0
2016-Jan-28 21:31N 26°05' W 080°07'0 0.0
2016-Jan-28 20:31N 26°05' W 080°07'0 0.0
2016-Jan-28 19:31N 26°05' W 080°07'0 0.0
2016-Jan-28 18:31N 26°05' W 080°07'0 0.0
2016-Jan-28 17:22N 26°05' W 080°07'0 0.0
2016-Jan-28 16:22N 26°05' W 080°07'0 0.0
2016-Jan-28 15:25N 26°05' W 080°07'0 0.0
2016-Jan-28 14:25N 26°05' W 080°07'0 0.0
2016-Jan-28 13:25N 26°05' W 080°07'0 0.0
2016-Jan-28 12:25N 26°05' W 080°07'0 0.0
2016-Jan-28 11:25N 26°05' W 080°07'0 0.0
2016-Jan-28 10:25N 26°05' W 080°07'0 0.0
2016-Jan-28 09:28N 26°05' W 080°07'0 0.0
2016-Jan-28 08:27N 26°05' W 080°07'0 0.0
2016-Jan-28 07:27N 26°05' W 080°07'0 0.0
2016-Jan-28 06:27N 26°05' W 080°07'2 2.6
2016-Jan-28 05:33N 26°05' W 080°05'1515.5
2016-Jan-28 04:34N 25°49' W 080°03'1817.5
2016-Jan-28 03:33N 25°32' W 080°01'  

Dump ship's entire track history